Rotan, TX (79546)

11:45 PM CDT on August 26, 2016 (GMT -0500)
DH Ranches | | Change Station

Elev 1870 ft 32.69 °N, 100.13 °W | Updated 6 seconds ago

Clear
Clear
72.9 °F
Feels Like 77 °F
N
0.9
Wind Variable Wind from SSE
Gusts 2.5 mph

Today
High -- | Low -- °F
--% Chance of Precip.
Yesterday
High -- | Low -- °F
Precip. -- in
Pressure 30.11 in
Visibility 10.0 miles
Clouds Clear
Heat Index 77 °F
Dew Point 49 °F
Humidity 42%
Rainfall 0.06 in
Snow Depth Not available.
7:12 AM 8:13 PM
Waning Crescent, 28% visible
METAR KSWW 270435Z AUTO 11006KT 10SM CLR 23/21 A3011 RMK AO2 T02270205
Pressure 30.11 in
Visibility 10.0 miles
Clouds Clear
Heat Index 77 °F
Dew Point 49 °F
Humidity 42%
Rainfall 0.06 in
Snow Depth Not available.
7:12 AM 8:13 PM
Waning Crescent, 28% visible
METAR KSWW 270435Z AUTO 11006KT 10SM CLR 23/21 A3011 RMK AO2 T02270205

10-Day Weather Forecast

Almanac

Astronomy

Aug. 26, 2016 Rise Set
Actual Time
Civil Twilight
Nautical Twilight
Astronomical Twilight
Moon
Length of Visible Light
Length of Day
Tomorrow will be .
, % of the Moon is Illuminated

Today's Extremes

State Highs State Lows

Community

WunderPhotos

Upload Photos

1,935,299 photos uploaded!

WunderBlog® & News

Nearby

Air Quality

  Air Quality AQ Index Pollutant
Not available.

Snow Depth

Station Depth Elevation

Earthquake Activity

City Distance Mag. Time & Date
Minimum magnitude displayed is 2.5.

Coastal Water Temperatures

Place Temperature

Stations

Nearby Weather Stations

Station Location Temp. Windchill Dew Point Humidity Wind Precip. Elev Updated Type
                   

Watches & Warnings

There are currently no watches in effect.